BBRO2: Mountain Fork, Broken Bow Rereg

                                SHEF ID:       BBRO2     Mountain Fork Re-regulation Dam
STATION TYPE:

STAGE RIV-FLOW VOLTAGE BAT-LOAD
ft cfs volt volt
Ccp-Rev Ccp-Rev Ccp-Rev Ccp-Rev
(America/Chicago)
04/30 00:00 392.01 1314 13.19 12.62
04/30 01:00 391.68 1172 13.16 12.63
04/30 02:00 391.37 1052 13.19 12.63
04/30 03:00 391.11 961 13.20 12.63
04/30 04:00 390.88 865 13.19 12.63
04/30 05:00 390.67 770 13.20 12.63
04/30 06:00 390.48 693 13.19 12.64
04/30 07:00 390.31 630 13.19 12.65
04/30 08:00 390.17 583 13.19 12.64
04/30 09:00 390.03 539 13.19 12.63
04/30 10:00 389.90 494 13.19 12.62
04/30 11:00 389.78 454 13.19 12.60
04/30 12:00 389.70 430 13.19 12.61
04/30 13:00 389.61 403 13.19 12.61
04/30 14:00 389.51 376 13.19 12.61
04/30 15:00 389.44 358 13.19 12.60
04/30 16:00 389.38 343 13.19 12.60
04/30 17:00 389.31 327 13.19 12.60
04/30 18:00 389.25 313 13.19 12.60
04/30 19:00 389.66 418 13.19 12.60
04/30 20:00 392.56 1533 13.19 12.61
04/30 21:00 393.78 2169 13.19 12.61
04/30 22:00 ---- ---- ---- ----
04/30 23:00 ---- ---- ---- ----
Data processed at Fri 01May2026 02:34 GMT

NOTICE: If you are parsing this page

Please convert to using our Data API. Starting early 2026 we will be migrating to: https://water.usace.army.mil with modern pages rendered in JavaScript. When this migration completes you will no longer be able to scrape this page! CWMSDataAPI (CDA)

Timeseries IDs (TSIDs)

TSIDs used from left to right in the data table
BROM.Stage.Inst.1Hour.0.Ccp-Rev
BROM.Flow.Inst.1Hour.0.Ccp-Rev
BROM.Volt-Battery.Inst.1Hour.0.Ccp-Rev
BROM.Volt-Battery Load.Inst.1Hour.0.Ccp-Rev

                            

All information presented herein is the property of the government of the United States of America and may be revised or deleted at any time without prior notice. Dissemination of this information without the expressed written consent of the Public Affairs Office, Tulsa District U.S. Army Corps of Engineers is strictly prohibited. These data are gathered electronically and, as presented, have NOT undergone any form of quality control. These data are NOT guaranteed to be valid or correct.